Portada
METAR-TAF:

METAR-TAF

Aeropuertos :

Aeropuerto Internacional Reina Beatrix

Aruba, Aruba

latitud: 12-30N, longitud: 070-01W, altitud: 18 m

Observación

El informe se hizo hace 36 minutos, a las 13:00 UTC
Viento 17 kt del este-sureste
Temperatura 29°C
Humedad 70%
Presión 1014 hPa
Visibilidad 10 km o más
Nubes dispersas a una altura de 2000 ft

METAR: TNCA 231300Z 12017KT 9999 SCT020 29/23 Q1014 NOSIG

Hora: 09:36 (13:36 UTC)

Pronóstico

El informe se hizo hace 1 hora y 36 minutos, a las 12:00 UTC
Pronóstico válido del 23 a las 12 UTC al 24 a las 12 UTC
Viento 18 kt del este con ráfagas de 30 kt
Visibilidad 10 km o más
Nubes dispersas a una altura de 2500 ft
Probabilidad 30% :
Temporalmente
del 23 a las 12 UTC al 23 a las 15 UTC
Viento 20 kt del este con ráfagas de 32 kt
Visibilidad: 8000 m
Cielo nuboso a una altura de 1500 ft
chaparrones de lluvia

TAF: TNCA 231200Z 2312/2412 09018G30KT 9999 SCT025 PROB30 TEMPO 2312/2315 09020G32KT 8000 SHRA BKN015

Observaciones y pronósticos meteorológicos de más de 4000 aeropuertos (mensajes METAR y TAF).

Los puntos amarillos y rojos representan las estaciones disponibles.

Ponga el ratón en el punto deseado para ver el nombre de la estación.

Haga clic para ver las observaciones y los pronósticos meteorológicos.

Para cambiar el mapa : haga clic en los botones verdes con una cruz de color negro para hacer un zoom, en el botón verde con un guión para alejar o en las flechas verdes para mapas adyacentes.


METAR-TAF: